createdAt,value
2023-05-19T00:02:34.399Z,51.48
2023-05-19T00:07:40.593Z,50.96
2023-05-19T00:12:46.404Z,50.74
2023-05-19T00:17:52.969Z,50.79
2023-05-19T00:22:58.547Z,51.18
2023-05-19T00:28:04.249Z,51.20
2023-05-19T00:33:09.973Z,50.65
2023-05-19T00:38:15.634Z,50.92
2023-05-19T00:43:21.200Z,51.25
2023-05-19T00:48:27.354Z,52.00
2023-05-19T00:53:34.849Z,52.01
2023-05-19T00:58:40.622Z,51.59
2023-05-19T01:03:47.672Z,51.10
2023-05-19T01:08:53.950Z,51.56
2023-05-19T01:13:59.767Z,51.34
2023-05-19T01:19:57.090Z,52.20
2023-05-19T01:25:22.354Z,51.76
2023-05-19T01:30:40.800Z,51.60
2023-05-19T01:35:48.104Z,51.81
2023-05-19T01:40:55.190Z,51.61
2023-05-19T01:46:02.235Z,51.67
2023-05-19T01:51:08.042Z,51.98
2023-05-19T01:56:25.984Z,51.08
2023-05-19T02:01:40.241Z,49.51
2023-05-19T02:07:04.794Z,49.61
2023-05-19T02:12:28.097Z,48.44
2023-05-19T02:17:37.453Z,46.75
2023-05-19T02:22:43.784Z,45.52
2023-05-19T02:27:49.821Z,43.47
2023-05-19T02:32:56.047Z,42.44
2023-05-19T02:38:01.786Z,42.16
2023-05-19T02:43:07.416Z,40.93
2023-05-19T02:48:13.327Z,39.39
2023-05-19T02:53:18.977Z,38.63
2023-05-19T02:58:24.714Z,37.54
2023-05-19T03:03:30.258Z,36.74
2023-05-19T03:08:37.232Z,36.44
2023-05-19T03:13:43.795Z,35.46
2023-05-19T03:18:49.351Z,34.90
2023-05-19T03:23:55.439Z,33.83
2023-05-19T03:29:00.651Z,32.82
2023-05-19T03:34:06.154Z,32.84
2023-05-19T03:39:11.799Z,31.86
2023-05-19T03:44:17.827Z,31.87
2023-05-19T03:49:23.585Z,32.15
2023-05-19T03:54:43.325Z,31.92
2023-05-19T03:59:48.377Z,32.23
2023-05-19T04:04:54.447Z,31.54
2023-05-19T04:10:00.257Z,31.75
2023-05-19T04:15:12.060Z,31.23
2023-05-19T04:20:19.130Z,32.54
2023-05-19T04:25:26.276Z,31.17
2023-05-19T04:30:32.308Z,31.67
2023-05-19T04:35:38.803Z,30.82
2023-05-19T04:40:46.465Z,31.67
2023-05-19T04:45:52.245Z,30.04
2023-05-19T04:50:58.430Z,28.31
2023-05-19T04:56:04.151Z,28.25
2023-05-19T05:01:10.225Z,27.68
2023-05-19T05:06:14.502Z,26.81
2023-05-19T05:11:19.579Z,25.78
2023-05-19T05:16:25.687Z,25.24
2023-05-19T05:21:30.556Z,25.13
2023-05-19T05:26:36.518Z,24.75
2023-05-19T05:31:41.910Z,24.88
2023-05-19T05:36:46.210Z,23.23
2023-05-19T05:41:50.779Z,22.64
2023-05-19T05:46:55.421Z,22.68
2023-05-19T05:52:05.778Z,21.45
2023-05-19T05:57:16.414Z,21.94
2023-05-19T06:02:22.646Z,20.79
2023-05-19T06:07:27.154Z,21.38
2023-05-19T06:12:31.736Z,20.78
2023-05-19T06:17:37.227Z,19.73
2023-05-19T06:22:41.795Z,21.56
2023-05-19T06:27:47.000Z,22.19
2023-05-19T06:32:52.767Z,23.07
2023-05-19T06:37:57.604Z,21.96
2023-05-19T06:43:02.123Z,22.54
2023-05-19T06:48:18.587Z,27.13
2023-05-19T06:53:22.996Z,27.55
2023-05-19T06:58:29.333Z,23.02
2023-05-19T07:03:36.084Z,21.85
2023-05-19T07:08:41.153Z,26.76
2023-05-19T07:13:46.294Z,27.55
2023-05-19T07:18:56.261Z,25.22
2023-05-19T07:24:01.359Z,26.28
2023-05-19T07:29:06.393Z,28.23
2023-05-19T07:34:10.622Z,21.62
2023-05-19T07:39:15.119Z,22.92
2023-05-19T07:44:19.730Z,24.14
2023-05-19T07:49:24.136Z,21.77
2023-05-19T07:54:28.349Z,22.20
2023-05-19T07:59:32.848Z,23.38
2023-05-19T08:04:38.622Z,22.27
2023-05-19T08:09:42.810Z,23.44
2023-05-19T08:14:47.144Z,23.51
2023-05-19T08:19:51.325Z,22.16
2023-05-19T08:24:55.469Z,23.34
2023-05-19T08:30:00.187Z,21.56
2023-05-19T08:35:04.936Z,22.74
2023-05-19T08:40:16.787Z,23.47
2023-05-19T08:45:21.227Z,22.84
2023-05-19T08:50:31.085Z,23.56
2023-05-19T08:55:43.008Z,22.84
2023-05-19T09:00:49.393Z,23.49
2023-05-19T09:05:53.672Z,23.08
2023-05-19T09:10:57.923Z,21.92
2023-05-19T09:16:03.795Z,21.11
2023-05-19T09:21:08.684Z,22.29
2023-05-19T09:26:12.882Z,21.78
2023-05-19T09:31:17.086Z,22.90
2023-05-19T09:36:21.278Z,23.99
2023-05-19T09:41:26.990Z,23.27
2023-05-19T09:46:31.358Z,24.21
2023-05-19T09:51:40.133Z,23.04
2023-05-19T09:56:44.892Z,22.48
2023-05-19T10:01:49.933Z,23.10
2023-05-19T10:06:56.009Z,21.89
2023-05-19T10:12:00.345Z,23.29
2023-05-19T10:17:05.286Z,22.39
2023-05-19T10:22:09.556Z,22.44
2023-05-19T10:27:15.678Z,23.51
2023-05-19T10:32:22.877Z,22.26
2023-05-19T10:37:42.425Z,22.49
2023-05-19T10:43:14.722Z,21.48
2023-05-19T10:48:21.350Z,20.29
2023-05-19T10:53:32.649Z,21.31
2023-05-19T10:58:46.676Z,22.55
2023-05-19T11:03:57.936Z,21.41
2023-05-19T11:09:16.224Z,21.65
2023-05-19T11:14:23.628Z,21.89
2023-05-19T11:19:42.520Z,22.04
2023-05-19T11:24:50.629Z,21.98
2023-05-19T11:30:02.757Z,22.61
2023-05-19T11:35:10.587Z,21.83
2023-05-19T11:40:17.765Z,22.67
2023-05-19T11:45:32.921Z,22.23
2023-05-19T11:50:38.885Z,22.46
2023-05-19T11:55:46.271Z,22.85
2023-05-19T12:00:52.171Z,21.44
2023-05-19T12:05:57.633Z,23.05
2023-05-19T12:11:02.112Z,22.70
2023-05-19T12:16:07.063Z,22.86
2023-05-19T12:21:11.777Z,24.33
2023-05-19T12:26:16.160Z,23.04
2023-05-19T12:31:24.240Z,23.56
2023-05-19T12:36:29.812Z,23.55
2023-05-19T12:41:35.252Z,24.63
2023-05-19T12:46:41.474Z,24.03
2023-05-19T12:51:52.425Z,23.14
2023-05-19T12:56:58.755Z,24.14
2023-05-19T13:02:03.110Z,23.36
2023-05-19T13:07:07.836Z,24.50
2023-05-19T13:12:11.996Z,23.39
2023-05-19T13:17:16.689Z,23.68
2023-05-19T13:22:22.377Z,24.65
2023-05-19T13:27:27.808Z,25.66
2023-05-19T13:32:32.706Z,24.99
2023-05-19T13:37:38.191Z,24.96
2023-05-19T13:42:44.896Z,24.53
2023-05-19T13:47:50.304Z,25.90
2023-05-19T13:52:55.661Z,25.37
2023-05-19T13:58:01.467Z,24.38
2023-05-19T14:03:07.523Z,24.77
2023-05-19T14:08:12.891Z,25.11
2023-05-19T14:13:32.066Z,25.86
2023-05-19T14:18:42.326Z,25.42
2023-05-19T14:23:47.877Z,25.60
2023-05-19T14:28:53.430Z,25.12
2023-05-19T14:33:58.771Z,25.43
2023-05-19T14:39:04.261Z,25.96
2023-05-19T14:44:09.871Z,25.92
2023-05-19T14:49:15.833Z,25.21
2023-05-19T14:54:21.557Z,25.77
2023-05-19T14:59:27.289Z,25.96
2023-05-19T15:04:32.808Z,26.45
2023-05-19T15:09:38.536Z,26.49
2023-05-19T15:14:44.178Z,26.72
2023-05-19T15:19:50.053Z,27.27
2023-05-19T15:24:55.596Z,27.68
2023-05-19T15:30:01.156Z,27.65
2023-05-19T15:35:12.650Z,28.04
2023-05-19T15:40:18.335Z,27.75
2023-05-19T15:45:25.158Z,28.01
2023-05-19T15:50:30.596Z,28.48
2023-05-19T15:55:36.141Z,29.06
2023-05-19T16:00:41.512Z,29.33
2023-05-19T16:05:47.494Z,31.63
2023-05-19T16:10:54.151Z,33.71
2023-05-19T16:15:59.344Z,34.00
2023-05-19T16:21:04.808Z,35.53
2023-05-19T16:26:10.359Z,36.29
2023-05-19T16:31:15.848Z,36.76
2023-05-19T16:36:23.318Z,37.28
2023-05-19T16:41:28.905Z,38.95
2023-05-19T16:46:34.669Z,39.74
2023-05-19T16:51:40.364Z,40.47
2023-05-19T16:56:46.827Z,40.91
2023-05-19T17:01:53.051Z,42.46
2023-05-19T17:06:58.405Z,42.88
2023-05-19T17:12:06.384Z,43.46
2023-05-19T17:17:11.891Z,45.00
2023-05-19T17:22:17.354Z,45.15
2023-05-19T17:27:25.064Z,45.84
2023-05-19T17:32:37.959Z,46.15
2023-05-19T17:37:44.085Z,46.00
2023-05-19T17:42:50.214Z,45.43
2023-05-19T17:47:58.147Z,45.93
2023-05-19T17:53:04.081Z,46.28
2023-05-19T17:58:10.053Z,47.32
2023-05-19T18:03:16.213Z,47.85
2023-05-19T18:08:29.141Z,48.15
2023-05-19T18:13:34.822Z,49.26
2023-05-19T18:18:46.521Z,49.55
2023-05-19T18:23:52.130Z,49.92
2023-05-19T18:29:04.575Z,49.59
2023-05-19T18:34:10.185Z,50.06
2023-05-19T18:39:15.760Z,51.19
2023-05-19T18:44:21.996Z,52.29
2023-05-19T18:49:27.258Z,52.44
2023-05-19T18:54:33.161Z,52.95
2023-05-19T18:59:38.750Z,53.65
2023-05-19T19:04:46.068Z,53.67
2023-05-19T19:09:52.233Z,54.03
2023-05-19T19:14:57.900Z,54.42
2023-05-19T19:20:03.674Z,54.96
2023-05-19T19:25:10.098Z,55.10
2023-05-19T19:30:15.485Z,55.70
2023-05-19T19:35:21.429Z,55.44
2023-05-19T19:40:27.170Z,56.30
2023-05-19T19:45:35.224Z,56.84
2023-05-19T19:50:40.880Z,57.17
2023-05-19T19:55:50.003Z,57.81
2023-05-19T20:01:06.338Z,57.80
2023-05-19T20:06:12.101Z,57.50
2023-05-19T20:11:18.025Z,59.06
2023-05-19T20:16:24.716Z,59.13
2023-05-19T20:21:30.137Z,59.37
2023-05-19T20:26:35.598Z,58.68
2023-05-19T20:31:40.743Z,59.31
2023-05-19T20:36:46.382Z,59.47
2023-05-19T20:41:51.808Z,59.59
2023-05-19T20:46:58.374Z,60.06
2023-05-19T20:52:03.953Z,60.41
2023-05-19T20:57:10.048Z,59.74
2023-05-19T21:02:15.570Z,60.52
2023-05-19T21:07:20.931Z,60.28
2023-05-19T21:12:32.058Z,60.81
2023-05-19T21:17:37.577Z,60.60
2023-05-19T21:22:43.115Z,59.70
2023-05-19T21:27:48.443Z,60.69
2023-05-19T21:32:54.081Z,60.35
2023-05-19T21:38:02.114Z,60.27
2023-05-19T21:43:16.992Z,61.35
2023-05-19T21:48:22.393Z,60.82
2023-05-19T21:53:27.815Z,61.38
2023-05-19T21:58:33.163Z,60.56
2023-05-19T22:03:38.775Z,61.37
2023-05-19T22:08:44.440Z,61.47
2023-05-19T22:13:50.695Z,61.59
2023-05-19T22:18:56.156Z,61.79
2023-05-19T22:24:01.620Z,61.57
2023-05-19T22:29:06.992Z,61.71
2023-05-19T22:34:15.990Z,62.06
2023-05-19T22:39:21.513Z,62.45
2023-05-19T22:44:27.011Z,61.56
2023-05-19T22:49:32.591Z,61.67
2023-05-19T22:54:38.417Z,61.72
2023-05-19T22:59:44.035Z,61.49
2023-05-19T23:04:49.444Z,60.91
2023-05-19T23:09:55.329Z,60.98
2023-05-19T23:15:00.794Z,61.64
2023-05-19T23:20:06.773Z,62.07
2023-05-19T23:25:12.220Z,61.80
2023-05-19T23:30:17.847Z,61.87
2023-05-19T23:35:23.270Z,62.17
2023-05-19T23:40:28.824Z,61.41
2023-05-19T23:45:34.579Z,61.66
2023-05-19T23:50:40.161Z,62.17
2023-05-19T23:55:45.978Z,62.63
